Cedar Park, Texas
Current Conditions -  °F | °C
As of 5:55 AM on Friday 28 Nov 2014 (Local Time) from KRYW Reporting Station
Overcast Overcast  
Wind Chill: 50°   Ceiling: 1100
Heat Index: 50°   Visibility: 10mi
Dew Point: 33°   Wind: 5mph
Humidity: 52%   Direction: 200°SSW
Pressure: 30.3"   Gusts: NA
Location:  30.51°N, 97.82°W
Report Text: KRYW 281155Z AUTO 20004KT 10SM BKN011 OVC023 10/01 A3030 RMK AO2 T01020008 10112 20088
Loading
Personal Weather Stations






























Interactive Weather Map New forecast layout! Learn more

10-Day Weather Forecast

Advertisements
Track Severe Weather on mobile